createdAt,value
2022-11-15T00:00:28.736Z,63.7
2022-11-15T00:02:12.438Z,63.8
2022-11-15T00:03:56.158Z,63.9
2022-11-15T00:05:39.842Z,63.9
2022-11-15T00:07:23.547Z,63.7
2022-11-15T00:09:07.250Z,63.7
2022-11-15T00:10:50.965Z,64.2
2022-11-15T00:12:34.714Z,64.8
2022-11-15T00:14:18.360Z,65.1
2022-11-15T00:16:02.065Z,65.1
2022-11-15T00:17:45.840Z,65.1
2022-11-15T00:19:29.509Z,65
2022-11-15T00:21:13.176Z,64.9
2022-11-15T00:22:56.938Z,64.9
2022-11-15T00:24:40.572Z,64.9
2022-11-15T00:26:24.277Z,64.9
2022-11-15T00:28:07.980Z,64.9
2022-11-15T00:29:51.686Z,64.8
2022-11-15T00:31:35.393Z,64.8
2022-11-15T00:33:19.091Z,64.8
2022-11-15T00:35:02.812Z,64.8
2022-11-15T00:36:46.499Z,64.8
2022-11-15T00:38:30.199Z,64.5
2022-11-15T00:40:13.893Z,64.4
2022-11-15T00:41:57.629Z,64.8
2022-11-15T00:43:41.301Z,64.8
2022-11-15T00:45:25.012Z,64.7
2022-11-15T00:47:08.708Z,64.7
2022-11-15T00:48:52.477Z,64.7
2022-11-15T00:50:36.119Z,64.7
2022-11-15T00:52:19.817Z,64.7
2022-11-15T00:54:03.530Z,64.6
2022-11-15T00:55:47.227Z,64.7
2022-11-15T00:57:30.964Z,64.6
2022-11-15T00:59:14.627Z,64.6
2022-11-15T01:00:58.347Z,64.6
2022-11-15T01:02:42.042Z,64.6
2022-11-15T01:04:25.735Z,64.6
2022-11-15T01:06:09.469Z,64.5
2022-11-15T01:07:53.139Z,64.5
2022-11-15T01:09:36.847Z,64.5
2022-11-15T01:11:20.544Z,64.5
2022-11-15T01:13:04.247Z,64.5
2022-11-15T01:14:48.000Z,64.4
2022-11-15T01:16:31.666Z,64.5
2022-11-15T01:18:15.427Z,64.4
2022-11-15T01:19:59.128Z,64.4
2022-11-15T01:21:42.779Z,64.4
2022-11-15T01:23:26.524Z,64.4
2022-11-15T01:25:10.165Z,64.4
2022-11-15T01:26:53.868Z,64.3
2022-11-15T01:28:37.577Z,64.3
2022-11-15T01:30:21.282Z,64.4
2022-11-15T01:32:05.037Z,64.3
2022-11-15T01:33:48.724Z,64.3
2022-11-15T01:35:32.392Z,64.3
2022-11-15T01:37:16.100Z,64.3
2022-11-15T01:38:59.805Z,64.3
2022-11-15T01:40:43.516Z,64.3
2022-11-15T01:42:27.201Z,64.3
2022-11-15T01:44:10.907Z,64.2
2022-11-15T01:45:54.611Z,64.2
2022-11-15T01:47:38.314Z,64.2
2022-11-15T01:49:22.010Z,64.2
2022-11-15T01:51:05.715Z,64.2
2022-11-15T01:52:49.411Z,64.2
2022-11-15T01:54:33.121Z,64.3
2022-11-15T01:56:16.832Z,64.2
2022-11-15T01:58:00.527Z,64.2
2022-11-15T01:59:44.234Z,64.2
2022-11-15T02:01:27.936Z,64.2
2022-11-15T02:03:11.638Z,64.2
2022-11-15T02:04:55.398Z,64.2
2022-11-15T02:06:39.032Z,64.2
2022-11-15T02:08:22.743Z,64.2
2022-11-15T02:10:06.442Z,64.1
2022-11-15T02:11:50.146Z,64.2
2022-11-15T02:13:33.923Z,64.1
2022-11-15T02:15:17.564Z,64.2
2022-11-15T02:17:01.256Z,64.2
2022-11-15T02:18:44.959Z,64.1
2022-11-15T02:20:28.656Z,64.2
2022-11-15T02:22:12.374Z,64.2
2022-11-15T02:23:56.066Z,64.2
2022-11-15T02:25:39.766Z,64.2
2022-11-15T02:27:23.466Z,64.2
2022-11-15T02:29:07.167Z,64.2
2022-11-15T02:30:50.888Z,64.2
2022-11-15T02:32:34.590Z,64.2
2022-11-15T02:34:18.342Z,64.2
2022-11-15T02:36:01.986Z,64.2
2022-11-15T02:37:45.687Z,64.2
2022-11-15T02:39:29.387Z,64.3
2022-11-15T02:41:13.110Z,63.9
2022-11-15T02:42:56.802Z,63.5
2022-11-15T02:44:40.498Z,63.3
2022-11-15T02:46:24.200Z,63.3
2022-11-15T02:48:07.898Z,63.4
2022-11-15T02:49:51.618Z,64
2022-11-15T02:51:35.313Z,64.4
2022-11-15T02:53:19.043Z,64.4
2022-11-15T02:55:02.708Z,64.4
2022-11-15T02:56:46.410Z,64.3
2022-11-15T02:58:30.183Z,64.3
2022-11-15T03:00:13.842Z,64.3
2022-11-15T03:01:57.523Z,64.3
2022-11-15T03:03:41.219Z,64.3
2022-11-15T03:05:24.922Z,64.3
2022-11-15T03:07:08.625Z,64.3
2022-11-15T03:08:52.331Z,64.3
2022-11-15T03:10:36.051Z,64.3
2022-11-15T03:12:19.788Z,64.3
2022-11-15T03:14:03.444Z,64.3
2022-11-15T03:15:47.142Z,64.3
2022-11-15T03:17:30.919Z,64.3
2022-11-15T03:19:14.537Z,64.3
2022-11-15T03:20:58.293Z,64.3
2022-11-15T03:22:41.955Z,64.3
2022-11-15T03:24:25.660Z,64.3
2022-11-15T03:26:09.350Z,64.3
2022-11-15T03:27:53.084Z,64.3
2022-11-15T03:29:36.765Z,64.3
2022-11-15T03:31:20.462Z,64.3
2022-11-15T03:33:04.172Z,64.3
2022-11-15T03:34:47.906Z,64.3
2022-11-15T03:36:31.568Z,64.3
2022-11-15T03:38:15.307Z,64.3
2022-11-15T03:39:58.974Z,64.3
2022-11-15T03:41:42.708Z,64.3
2022-11-15T03:43:26.452Z,64.3
2022-11-15T03:45:10.086Z,64.3
2022-11-15T03:46:53.819Z,64.3
2022-11-15T03:48:37.532Z,64.3
2022-11-15T03:50:21.197Z,64.3
2022-11-15T03:52:04.946Z,64.2
2022-11-15T03:53:48.598Z,64.2
2022-11-15T03:55:32.327Z,64.3
2022-11-15T03:57:16.013Z,64.3
2022-11-15T03:58:59.707Z,64.3
2022-11-15T04:00:43.405Z,64.3
2022-11-15T04:02:27.178Z,64.3
2022-11-15T04:04:10.859Z,64.3
2022-11-15T04:05:54.533Z,64.3
2022-11-15T04:07:38.257Z,64.2
2022-11-15T04:09:22.046Z,64.3
2022-11-15T04:11:05.640Z,64.3
2022-11-15T04:12:49.412Z,64.3
2022-11-15T04:14:33.034Z,64.3
2022-11-15T04:16:16.738Z,64.2
2022-11-15T04:18:00.463Z,64.3
2022-11-15T04:19:44.144Z,64.3
2022-11-15T04:21:27.845Z,64.3
2022-11-15T04:23:11.566Z,64.3
2022-11-15T04:24:55.259Z,64.3
2022-11-15T04:26:38.951Z,64.3
2022-11-15T04:28:22.655Z,64.3
2022-11-15T04:30:06.363Z,64.2
2022-11-15T04:31:50.058Z,64.2
2022-11-15T04:33:33.765Z,64.3
2022-11-15T04:35:17.466Z,64.2
2022-11-15T04:37:01.161Z,64.2
2022-11-15T04:38:44.878Z,64.2
2022-11-15T04:40:28.580Z,64.3
2022-11-15T04:42:12.291Z,64.3
2022-11-15T04:43:56.049Z,64.2
2022-11-15T04:45:39.690Z,64.2
2022-11-15T04:47:23.386Z,64.3
2022-11-15T04:49:07.168Z,64.3
2022-11-15T04:50:50.867Z,64.2
2022-11-15T04:52:34.533Z,64.3
2022-11-15T04:54:18.197Z,64.2
2022-11-15T04:56:01.903Z,64.2
2022-11-15T04:57:45.683Z,64.2
2022-11-15T04:59:29.300Z,64.3
2022-11-15T05:01:13.013Z,64.2
2022-11-15T05:02:56.724Z,64.2
2022-11-15T05:04:40.414Z,64.2
2022-11-15T05:06:24.117Z,64.2
2022-11-15T05:08:07.825Z,64.2
2022-11-15T05:09:51.523Z,64.2
2022-11-15T05:11:35.231Z,64.2
2022-11-15T05:13:18.928Z,64.2
2022-11-15T05:15:02.635Z,64.2
2022-11-15T05:16:46.399Z,64.2
2022-11-15T05:18:30.032Z,64.2
2022-11-15T05:20:13.767Z,64.2
2022-11-15T05:21:57.452Z,64.2
2022-11-15T05:23:41.141Z,64.1
2022-11-15T05:25:24.843Z,64.1
2022-11-15T05:27:08.554Z,64.1
2022-11-15T05:28:52.252Z,64.1
2022-11-15T05:30:35.963Z,64.1
2022-11-15T05:32:19.647Z,64.1
2022-11-15T05:34:03.449Z,64.1
2022-11-15T05:35:47.064Z,64.1
2022-11-15T05:37:30.764Z,64.1
2022-11-15T05:39:14.464Z,64.1
2022-11-15T05:40:58.175Z,64.1
2022-11-15T05:42:41.861Z,64.1
2022-11-15T05:44:25.596Z,64.1
2022-11-15T05:46:09.381Z,64.1
2022-11-15T05:47:53.007Z,64.1
2022-11-15T05:49:36.749Z,64
2022-11-15T05:51:20.426Z,64.1
2022-11-15T05:53:04.084Z,64.1
2022-11-15T05:54:47.810Z,64.1
2022-11-15T05:56:31.535Z,64
2022-11-15T05:58:15.225Z,64
2022-11-15T05:59:58.903Z,64
2022-11-15T06:01:42.593Z,64
2022-11-15T06:03:26.301Z,64.1
2022-11-15T06:05:10.015Z,63.9
2022-11-15T06:06:53.704Z,64.1
2022-11-15T06:08:37.509Z,63.8
2022-11-15T06:10:21.110Z,63.7
2022-11-15T06:12:04.862Z,64
2022-11-15T06:13:48.583Z,64.1
2022-11-15T06:15:32.219Z,64.1
2022-11-15T06:17:15.922Z,64
2022-11-15T06:18:59.616Z,64.2
2022-11-15T06:20:43.342Z,64.1
2022-11-15T06:22:27.028Z,64.2
2022-11-15T06:24:10.754Z,64.2
2022-11-15T06:25:54.447Z,64.1
2022-11-15T06:27:38.140Z,64
2022-11-15T06:29:21.906Z,64.1
2022-11-15T06:31:05.552Z,64.2
2022-11-15T06:32:49.251Z,64.3
2022-11-15T06:34:33.035Z,64.2
2022-11-15T06:36:16.707Z,64
2022-11-15T06:38:00.458Z,63.8
2022-11-15T06:39:44.124Z,63.8
2022-11-15T06:41:27.773Z,63.8
2022-11-15T06:43:11.464Z,63.9
2022-11-15T06:44:55.170Z,63.8
2022-11-15T06:46:38.908Z,63.4
2022-11-15T06:48:22.579Z,63.3
2022-11-15T06:50:06.282Z,63.1
2022-11-15T06:51:50.022Z,63
2022-11-15T06:53:33.690Z,63.1
2022-11-15T06:55:17.393Z,63.2
2022-11-15T06:57:01.086Z,63
2022-11-15T06:58:44.811Z,62.9
2022-11-15T07:00:28.609Z,63
2022-11-15T07:02:12.204Z,62.9
2022-11-15T07:03:55.908Z,63
2022-11-15T07:05:39.599Z,62.9
2022-11-15T07:07:23.307Z,62.9
2022-11-15T07:09:07.007Z,62.8
2022-11-15T07:10:50.759Z,62.8
2022-11-15T07:12:34.555Z,62.8
2022-11-15T07:14:18.207Z,62.8
2022-11-15T07:16:01.949Z,62.8
2022-11-15T07:17:45.542Z,62.7
2022-11-15T07:19:29.222Z,62.7
2022-11-15T07:21:12.985Z,62.8
2022-11-15T07:22:56.733Z,62.9
2022-11-15T07:24:40.331Z,62.9
2022-11-15T07:26:24.049Z,62.8
2022-11-15T07:28:07.739Z,62.8
2022-11-15T07:29:51.444Z,62.8
2022-11-15T07:31:35.159Z,62.8
2022-11-15T07:33:18.848Z,62.7
2022-11-15T07:35:02.554Z,62.7
2022-11-15T07:36:46.261Z,62.7
2022-11-15T07:38:30.079Z,62.6
2022-11-15T07:40:13.751Z,62.6
2022-11-15T07:41:57.444Z,62.6
2022-11-15T07:43:41.165Z,62.5
2022-11-15T07:45:24.770Z,62.5
2022-11-15T07:47:08.473Z,62.5
2022-11-15T07:48:52.376Z,62.5
2022-11-15T07:50:35.943Z,62.4
2022-11-15T07:52:19.604Z,62.4
2022-11-15T07:54:03.408Z,62.4
2022-11-15T07:55:47.016Z,62.4
2022-11-15T07:57:30.680Z,62.4
2022-11-15T07:59:14.392Z,62.4
2022-11-15T08:00:58.085Z,62.4
2022-11-15T08:02:41.812Z,62.4
2022-11-15T08:04:25.587Z,62.3
2022-11-15T08:06:09.195Z,62.4
2022-11-15T08:07:52.969Z,62
2022-11-15T08:09:36.604Z,61.6
2022-11-15T08:11:20.344Z,61.5
2022-11-15T08:13:04.008Z,62
2022-11-15T08:14:47.828Z,62
2022-11-15T08:16:31.438Z,61.9
2022-11-15T08:18:15.109Z,62
2022-11-15T08:19:58.881Z,62
2022-11-15T08:21:42.638Z,62
2022-11-15T08:23:26.214Z,61.9
2022-11-15T08:25:09.937Z,62
2022-11-15T08:26:53.632Z,61.7
2022-11-15T08:28:37.391Z,61.9
2022-11-15T08:30:21.060Z,61.8
2022-11-15T08:32:04.751Z,62
2022-11-15T08:33:48.570Z,62.1
2022-11-15T08:35:32.237Z,62.1
2022-11-15T08:37:15.873Z,62.3
2022-11-15T08:38:59.546Z,62.6
2022-11-15T08:40:43.262Z,62.4
2022-11-15T08:42:26.984Z,62.3
2022-11-15T08:44:10.769Z,62.4
2022-11-15T08:45:54.449Z,62.4
2022-11-15T08:47:38.054Z,62.4
2022-11-15T08:49:21.761Z,62.4
2022-11-15T08:51:05.533Z,62.4
2022-11-15T08:52:49.163Z,62.3
2022-11-15T08:54:32.862Z,62.4
2022-11-15T08:56:16.632Z,62.4
2022-11-15T08:58:00.335Z,62.3
2022-11-15T08:59:44.069Z,62.3
2022-11-15T09:01:27.696Z,62.3
2022-11-15T09:03:11.372Z,62.3
2022-11-15T09:04:55.082Z,62.3
2022-11-15T09:06:38.773Z,62.2
2022-11-15T09:08:22.490Z,62.2
2022-11-15T09:10:06.209Z,62.3
2022-11-15T09:11:50.026Z,62.3
2022-11-15T09:13:33.634Z,62.3
2022-11-15T09:15:17.508Z,62.3
2022-11-15T09:17:01.128Z,62.1
2022-11-15T09:18:44.691Z,61.6
2022-11-15T09:20:28.589Z,61.3
2022-11-15T09:22:12.204Z,61.1
2022-11-15T09:23:55.799Z,61.2
2022-11-15T09:25:39.686Z,61.7
2022-11-15T09:27:23.448Z,61.9
2022-11-15T09:29:07.090Z,61.8
2022-11-15T09:30:50.612Z,61.8
2022-11-15T09:32:34.472Z,61.8
2022-11-15T09:34:18.192Z,61.7
2022-11-15T09:36:01.734Z,61.7
2022-11-15T09:37:45.610Z,61.7
2022-11-15T09:39:29.348Z,61.7
2022-11-15T09:41:12.832Z,61.7
2022-11-15T09:42:56.552Z,61.7
2022-11-15T09:44:40.268Z,61.7
2022-11-15T09:46:24.034Z,61.7
2022-11-15T09:48:07.758Z,61.7
2022-11-15T09:49:51.498Z,61.7
2022-11-15T09:51:35.229Z,61.7
2022-11-15T09:53:18.916Z,61.7
2022-11-15T09:55:02.672Z,61.8
2022-11-15T09:56:46.359Z,61.8
2022-11-15T09:58:30.022Z,61.8
2022-11-15T10:00:13.561Z,61.8
2022-11-15T10:01:57.306Z,61.6
2022-11-15T10:03:41.144Z,61.8
2022-11-15T10:05:24.875Z,61.5
2022-11-15T10:07:08.515Z,60.9
2022-11-15T10:08:52.245Z,60.9
2022-11-15T10:10:35.915Z,60.8
2022-11-15T10:12:19.655Z,61
2022-11-15T10:14:03.335Z,60.8
2022-11-15T10:15:47.048Z,60.8
2022-11-15T10:17:30.762Z,60.7
2022-11-15T10:19:14.438Z,60.8
2022-11-15T10:20:58.091Z,60.8
2022-11-15T10:22:41.810Z,60.8
2022-11-15T10:24:25.391Z,60.8
2022-11-15T10:29:36.578Z,60.8
2022-11-15T10:31:20.407Z,60.8
2022-11-15T10:33:04.075Z,60.8
2022-11-15T10:34:47.729Z,60.9
2022-11-15T10:36:31.458Z,61
2022-11-15T10:38:15.093Z,61
2022-11-15T10:39:58.778Z,61
2022-11-15T10:41:42.503Z,61
2022-11-15T10:43:26.123Z,61
2022-11-15T10:45:09.862Z,61
2022-11-15T10:46:53.529Z,61.1
2022-11-15T10:48:37.299Z,61
2022-11-15T10:50:20.970Z,60.5
2022-11-15T10:52:04.728Z,60.5
2022-11-15T10:53:48.345Z,60.4
2022-11-15T10:55:32.115Z,60.5
2022-11-15T10:57:15.721Z,60.5
2022-11-15T10:58:59.610Z,60.5
2022-11-15T11:00:43.128Z,60.8
2022-11-15T11:02:26.865Z,60.8
2022-11-15T11:04:10.528Z,60.8
2022-11-15T11:05:54.380Z,60.8
2022-11-15T11:07:37.935Z,60.7
2022-11-15T11:09:21.792Z,60.8
2022-11-15T11:11:05.476Z,60.9
2022-11-15T11:12:49.048Z,60.9
2022-11-15T11:14:32.795Z,60.9
2022-11-15T11:16:16.510Z,60.9
2022-11-15T11:18:00.222Z,61
2022-11-15T11:19:43.920Z,61
2022-11-15T11:21:27.573Z,61
2022-11-15T11:23:11.307Z,61
2022-11-15T11:24:54.959Z,61
2022-11-15T11:26:38.690Z,61.1
2022-11-15T11:28:22.419Z,61.1
2022-11-15T11:30:06.205Z,61.1
2022-11-15T11:31:49.830Z,61.1
2022-11-15T11:33:33.510Z,61.1
2022-11-15T11:35:17.311Z,61.1
2022-11-15T11:37:01.074Z,61.1
2022-11-15T11:38:44.671Z,61.1
2022-11-15T11:40:28.397Z,61.1
2022-11-15T11:42:12.105Z,61.1
2022-11-15T11:43:55.858Z,61.1
2022-11-15T11:45:39.470Z,61.1
2022-11-15T11:47:23.198Z,61.1
2022-11-15T11:49:06.950Z,61.1
2022-11-15T11:50:50.579Z,61.1
2022-11-15T11:52:34.203Z,61.1
2022-11-15T11:54:17.947Z,61.1
2022-11-15T11:56:01.693Z,61.1
2022-11-15T11:57:45.423Z,61.1
2022-11-15T11:59:29.086Z,61.1
2022-11-15T12:01:12.829Z,61
2022-11-15T12:02:56.476Z,61
2022-11-15T12:04:40.204Z,61
2022-11-15T12:06:23.903Z,61.1
2022-11-15T12:08:07.589Z,61
2022-11-15T12:09:51.228Z,61.1
2022-11-15T12:11:34.928Z,61
2022-11-15T12:13:18.637Z,61
2022-11-15T12:15:02.459Z,61
2022-11-15T12:16:46.101Z,61.1
2022-11-15T12:18:29.865Z,61.1
2022-11-15T12:20:13.442Z,61.1
2022-11-15T12:21:57.354Z,61.1
2022-11-15T12:23:40.852Z,61.1
2022-11-15T12:25:24.669Z,61.1
2022-11-15T12:27:08.256Z,61.1
2022-11-15T12:28:52.044Z,61.1
2022-11-15T12:30:35.658Z,61.1
2022-11-15T12:32:19.358Z,61.2
2022-11-15T12:34:03.068Z,61.2
2022-11-15T12:35:46.771Z,61.2
2022-11-15T12:37:30.610Z,61.1
2022-11-15T12:39:14.269Z,61.2
2022-11-15T12:40:57.901Z,61.2
2022-11-15T12:42:41.577Z,61.2
2022-11-15T12:44:25.273Z,61.2
2022-11-15T12:46:08.984Z,61.2
2022-11-15T12:47:52.679Z,61.2
2022-11-15T12:49:36.505Z,61.2
2022-11-15T12:51:20.218Z,61.2
2022-11-15T12:53:03.957Z,61.2
2022-11-15T12:54:47.513Z,61.2
2022-11-15T12:56:31.202Z,61.2
2022-11-15T12:58:14.899Z,61.2
2022-11-15T12:59:58.600Z,61.2
2022-11-15T13:01:42.305Z,61.2
2022-11-15T13:03:26.001Z,61.2
2022-11-15T13:05:09.706Z,61.2
2022-11-15T13:06:53.402Z,61.2
2022-11-15T13:08:37.108Z,61.2
2022-11-15T13:10:20.873Z,61.2
2022-11-15T13:12:04.629Z,61.2
2022-11-15T13:13:48.217Z,61.2
2022-11-15T13:15:31.925Z,61.2
2022-11-15T13:17:15.618Z,61.2
2022-11-15T13:18:59.331Z,61.2
2022-11-15T13:20:43.032Z,61.2
2022-11-15T13:22:26.736Z,60.9
2022-11-15T13:24:10.439Z,60.5
2022-11-15T13:25:54.151Z,60.4
2022-11-15T13:27:37.836Z,60.4
2022-11-15T13:29:21.564Z,60.3
2022-11-15T13:31:05.244Z,60.3
2022-11-15T13:32:48.951Z,60.2
2022-11-15T13:36:16.353Z,60.4
2022-11-15T13:38:00.094Z,60.5
2022-11-15T13:39:43.763Z,60.5
2022-11-15T13:41:27.543Z,60.6
2022-11-15T13:43:11.239Z,60.5
2022-11-15T13:44:54.876Z,60.5
2022-11-15T13:46:38.570Z,60.4
2022-11-15T13:48:22.277Z,60.4
2022-11-15T13:50:05.979Z,60.3
2022-11-15T13:51:49.693Z,59.9
2022-11-15T13:53:33.403Z,59.9
2022-11-15T13:55:17.160Z,59.9
2022-11-15T13:57:00.986Z,60.1
2022-11-15T13:58:44.505Z,60.2
2022-11-15T14:00:28.193Z,60.1
2022-11-15T14:02:11.894Z,60.2
2022-11-15T14:03:55.600Z,60.1
2022-11-15T14:05:39.299Z,60.1
2022-11-15T14:07:23.017Z,60.2
2022-11-15T14:09:06.706Z,60.2
2022-11-15T14:10:50.413Z,60.3
2022-11-15T14:12:34.157Z,60.3
2022-11-15T14:14:17.890Z,60.3
2022-11-15T14:16:01.673Z,60.3
2022-11-15T14:17:45.370Z,60.3
2022-11-15T14:19:29.053Z,60.4
2022-11-15T14:21:12.634Z,60.4
2022-11-15T14:22:56.328Z,60.4
2022-11-15T14:24:40.036Z,60.4
2022-11-15T14:26:23.746Z,60.4
2022-11-15T14:28:07.439Z,60.4
2022-11-15T14:29:51.144Z,60.4
2022-11-15T14:31:34.849Z,60.4
2022-11-15T14:33:18.552Z,60.4
2022-11-15T14:35:02.298Z,60.4
2022-11-15T14:36:45.951Z,60.5
2022-11-15T14:38:29.657Z,60.5
2022-11-15T14:40:13.364Z,60.5
2022-11-15T14:41:57.098Z,60.5
2022-11-15T14:43:40.764Z,60.5
2022-11-15T14:45:24.470Z,60.6
2022-11-15T14:47:08.180Z,60.6
2022-11-15T14:48:52.049Z,60.5
2022-11-15T14:50:35.720Z,60.5
2022-11-15T14:52:19.448Z,60.5
2022-11-15T14:54:02.986Z,60.5
2022-11-15T14:55:46.696Z,60.5
2022-11-15T14:57:30.386Z,60.5
2022-11-15T14:59:14.093Z,60.6
2022-11-15T15:00:57.791Z,60.5
2022-11-15T15:02:41.499Z,60.5
2022-11-15T15:04:25.212Z,60.5
2022-11-15T15:06:08.916Z,60.6
2022-11-15T15:07:52.611Z,60.5
2022-11-15T15:09:36.300Z,60.5
2022-11-15T15:11:20.010Z,60.5
2022-11-15T15:13:03.721Z,60.5
2022-11-15T15:14:47.419Z,60.5
2022-11-15T15:16:31.124Z,60.5
2022-11-15T15:18:14.817Z,60.4
2022-11-15T15:19:58.525Z,59.8
2022-11-15T15:21:42.226Z,59.8
2022-11-15T15:23:25.935Z,59.8
2022-11-15T15:25:09.705Z,59.8
2022-11-15T15:26:53.466Z,59.8
2022-11-15T15:28:37.213Z,59.6
2022-11-15T15:30:20.741Z,59.6
2022-11-15T15:32:04.537Z,59.7
2022-11-15T15:33:48.143Z,60
2022-11-15T15:35:31.846Z,59.7
2022-11-15T15:37:15.540Z,59.6
2022-11-15T15:38:59.278Z,59.6
2022-11-15T15:40:42.953Z,59.6
2022-11-15T15:42:26.678Z,59.6
2022-11-15T15:44:10.476Z,59.6
2022-11-15T15:45:54.179Z,59.5
2022-11-15T15:47:37.795Z,59.5
2022-11-15T15:49:21.463Z,59.5
2022-11-15T15:51:05.156Z,61
2022-11-15T15:52:48.895Z,62.6
2022-11-15T15:54:32.567Z,61.3
2022-11-15T15:56:16.273Z,61.4
2022-11-15T15:57:59.968Z,62.6
2022-11-15T15:59:43.671Z,62.7
2022-11-15T16:01:27.379Z,62.6
2022-11-15T16:03:11.081Z,62.8
2022-11-15T16:04:54.780Z,62.4
2022-11-15T16:06:38.612Z,62.8
2022-11-15T16:08:22.199Z,63
2022-11-15T16:11:49.703Z,62.7
2022-11-15T16:13:33.295Z,62.9
2022-11-15T16:15:17.005Z,63
2022-11-15T16:17:00.706Z,62.9
2022-11-15T16:18:44.400Z,63
2022-11-15T16:20:28.135Z,63
2022-11-15T16:22:11.844Z,63.1
2022-11-15T16:23:55.651Z,63.1
2022-11-15T16:25:39.212Z,63.1
2022-11-15T16:27:22.915Z,62.8
2022-11-15T16:29:06.768Z,62.5
2022-11-15T16:30:50.339Z,62.3
2022-11-15T16:32:34.038Z,62.2
2022-11-15T16:34:17.725Z,62.1
2022-11-15T16:36:01.558Z,62.1
2022-11-15T16:37:45.122Z,62
2022-11-15T16:39:28.880Z,61.9
2022-11-15T16:41:12.726Z,61.9
2022-11-15T16:42:56.447Z,61.7
2022-11-15T16:46:23.646Z,61.6
2022-11-15T16:48:07.355Z,61.6
2022-11-15T16:49:51.046Z,61.5
2022-11-15T16:51:34.872Z,61.4
2022-11-15T16:53:18.541Z,61.4
2022-11-15T16:55:02.163Z,61.4
2022-11-15T16:56:45.864Z,61.4
2022-11-15T16:58:29.564Z,61.3
2022-11-15T17:00:13.268Z,61.3
2022-11-15T17:01:57.018Z,61.2
2022-11-15T17:03:40.668Z,61.2
2022-11-15T17:05:24.380Z,61.1
2022-11-15T17:07:08.100Z,61.1
2022-11-15T17:08:51.777Z,61.2
2022-11-15T17:10:35.476Z,61.1
2022-11-15T17:12:19.184Z,61
2022-11-15T17:14:02.892Z,61
2022-11-15T17:15:46.630Z,61
2022-11-15T17:17:30.293Z,61
2022-11-15T17:19:13.988Z,61
2022-11-15T17:20:57.690Z,60.9
2022-11-15T17:22:41.398Z,60.9
2022-11-15T17:24:25.114Z,60.8
2022-11-15T17:26:08.809Z,60.8
2022-11-15T17:27:52.520Z,61
2022-11-15T17:29:36.205Z,61.2
2022-11-15T17:31:19.917Z,61.1
2022-11-15T17:33:03.614Z,61
2022-11-15T17:34:47.309Z,61.1
2022-11-15T17:36:31.022Z,61.1
2022-11-15T17:38:14.722Z,61.1
2022-11-15T17:39:58.426Z,61.3
2022-11-15T17:41:42.141Z,61.3
2022-11-15T17:43:25.826Z,61.5
2022-11-15T17:45:09.533Z,61.8
2022-11-15T17:46:53.237Z,61.9
2022-11-15T17:48:36.933Z,61.6
2022-11-15T17:50:20.639Z,61.3
2022-11-15T17:52:04.348Z,61.2
2022-11-15T17:53:48.043Z,61.3
2022-11-15T17:55:31.745Z,61.1
2022-11-15T17:57:15.470Z,61.1
2022-11-15T17:58:59.153Z,60.9
2022-11-15T18:00:42.854Z,60.8
2022-11-15T18:02:26.556Z,61.2
2022-11-15T18:04:10.287Z,62.9
2022-11-15T18:05:53.963Z,63.6
2022-11-15T18:07:37.670Z,63.7
2022-11-15T18:09:21.363Z,63.9
2022-11-15T18:11:05.074Z,64.1
2022-11-15T18:12:48.774Z,64.1
2022-11-15T18:14:32.579Z,64.2
2022-11-15T18:16:16.186Z,64.5
2022-11-15T18:17:59.895Z,64.9
2022-11-15T18:19:43.806Z,65.2
2022-11-15T18:21:27.490Z,65.3
2022-11-15T18:23:11.170Z,65.7
2022-11-15T18:24:54.878Z,66.8
2022-11-15T18:26:38.513Z,67.1
2022-11-15T18:28:22.221Z,67.8
2022-11-15T18:30:05.795Z,66.1
2022-11-15T18:31:49.675Z,66.4
2022-11-15T18:33:33.384Z,66.2
2022-11-15T18:35:17.094Z,66
2022-11-15T18:37:00.797Z,66
2022-11-15T18:38:44.473Z,66
2022-11-15T18:40:28.010Z,66.1
2022-11-15T18:42:11.843Z,66
2022-11-15T18:43:55.531Z,65.9
2022-11-15T18:45:39.303Z,65.8
2022-11-15T18:47:23.015Z,65.8
2022-11-15T18:49:06.692Z,65.8
2022-11-15T18:50:50.401Z,65.8
2022-11-15T18:52:34.108Z,65.6
2022-11-15T18:54:17.774Z,65.6
2022-11-15T18:56:01.414Z,65.3
2022-11-15T18:57:45.305Z,65.3
2022-11-15T18:59:28.967Z,65.1
2022-11-15T19:01:12.695Z,65.1
2022-11-15T19:02:56.403Z,65.1
2022-11-15T19:04:40.057Z,65.3
2022-11-15T19:06:23.734Z,65.4
2022-11-15T19:08:07.398Z,65.2
2022-11-15T19:09:51.080Z,65.2
2022-11-15T19:11:34.849Z,65.3
2022-11-15T19:13:18.540Z,65.2
2022-11-15T19:15:02.069Z,65.1
2022-11-15T19:16:45.941Z,64.8
2022-11-15T19:18:29.642Z,65
2022-11-15T19:20:13.317Z,65.2
2022-11-15T19:21:56.879Z,65.1
2022-11-15T19:23:40.845Z,65
2022-11-15T19:25:24.278Z,64.9
2022-11-15T19:27:08.158Z,64.9
2022-11-15T19:28:51.688Z,64.8
2022-11-15T19:30:35.474Z,64.7
2022-11-15T19:32:19.133Z,64.7
2022-11-15T19:34:02.982Z,64.6
2022-11-15T19:35:46.494Z,64.5
2022-11-15T19:37:30.272Z,64.6
2022-11-15T19:39:14.080Z,64.6
2022-11-15T19:40:57.598Z,64.4
2022-11-15T19:42:41.363Z,64.3
2022-11-15T19:44:25.140Z,64.5
2022-11-15T19:46:08.847Z,64.3
2022-11-15T19:47:52.515Z,64.2
2022-11-15T19:49:36.197Z,64.2
2022-11-15T19:51:20.015Z,64.1
2022-11-15T19:53:03.530Z,64
2022-11-15T19:54:47.351Z,63.9
2022-11-15T19:56:31.093Z,63.9
2022-11-15T19:58:14.635Z,63.9
2022-11-15T19:59:58.463Z,63.3
2022-11-15T20:01:42.153Z,63.1
2022-11-15T20:03:25.864Z,63.1
2022-11-15T20:05:09.579Z,63
2022-11-15T20:06:53.341Z,62.9
2022-11-15T20:08:37.010Z,62.8
2022-11-15T20:10:20.688Z,62.7
2022-11-15T20:12:04.257Z,62.6
2022-11-15T20:13:48.117Z,62.7
2022-11-15T20:15:31.660Z,62.6
2022-11-15T20:17:15.394Z,62.6
2022-11-15T20:18:59.219Z,62.5
2022-11-15T20:20:42.843Z,62.4
2022-11-15T20:22:26.667Z,62.4
2022-11-15T20:24:10.357Z,62.3
2022-11-15T20:25:54.028Z,62.3
2022-11-15T20:27:37.596Z,62.3
2022-11-15T20:29:21.362Z,62.2
2022-11-15T20:31:05.103Z,62.1
2022-11-15T20:32:48.689Z,62.1
2022-11-15T20:34:32.588Z,62.1
2022-11-15T20:36:16.277Z,61.9
2022-11-15T20:37:59.974Z,61.9
2022-11-15T20:39:43.667Z,61.9
2022-11-15T20:41:27.397Z,61.9
2022-11-15T20:43:10.943Z,61.9
2022-11-15T20:44:54.668Z,61.9
2022-11-15T20:48:22.178Z,61.8
2022-11-15T20:50:05.926Z,61.7
2022-11-15T20:51:49.589Z,61.8
2022-11-15T20:53:33.318Z,61.7
2022-11-15T20:55:16.963Z,61.6
2022-11-15T20:57:00.524Z,61.7
2022-11-15T20:58:44.247Z,61.6
2022-11-15T21:00:27.941Z,61.6
2022-11-15T21:02:11.736Z,61.6
2022-11-15T21:03:55.383Z,61.5
2022-11-15T21:05:39.194Z,61.5
2022-11-15T21:07:22.929Z,61.5
2022-11-15T21:09:06.559Z,61.5
2022-11-15T21:10:50.407Z,61.5
2022-11-15T21:12:33.982Z,61.4
2022-11-15T21:14:17.696Z,61.5
2022-11-15T21:16:01.372Z,61.8
2022-11-15T21:17:45.002Z,61.8
2022-11-15T21:19:28.713Z,61.5
2022-11-15T21:21:12.495Z,61.4
2022-11-15T21:22:56.213Z,61.6
2022-11-15T21:24:39.888Z,61.6
2022-11-15T21:26:23.669Z,61.5
2022-11-15T21:28:07.229Z,61.3
2022-11-15T21:29:51.080Z,61.3
2022-11-15T21:31:34.715Z,61.2
2022-11-15T21:33:18.471Z,61.5
2022-11-15T21:35:02.109Z,62.9
2022-11-15T21:36:45.867Z,63.5
2022-11-15T21:38:29.406Z,63.1
2022-11-15T21:40:13.112Z,64.1
2022-11-15T21:41:56.995Z,63.4
2022-11-15T21:43:40.491Z,63.8
2022-11-15T21:45:24.377Z,63.7
2022-11-15T21:47:08.053Z,63.7
2022-11-15T21:48:51.755Z,64.2
2022-11-15T21:50:35.420Z,64.4
2022-11-15T21:52:19.039Z,64.5
2022-11-15T21:54:02.979Z,64.7
2022-11-15T21:55:46.587Z,64.8
2022-11-15T21:57:30.317Z,64.9
2022-11-15T21:59:13.819Z,65
2022-11-15T22:00:57.517Z,65
2022-11-15T22:02:41.309Z,65.1
2022-11-15T22:04:25.113Z,65.1
2022-11-15T22:06:08.775Z,65.1
2022-11-15T22:07:52.320Z,65.2
2022-11-15T22:09:36.023Z,65.3
2022-11-15T22:11:19.756Z,65.3
2022-11-15T22:13:03.431Z,65.3
2022-11-15T22:14:47.130Z,65.4
2022-11-15T22:16:30.916Z,65.4
2022-11-15T22:18:14.642Z,65.4
2022-11-15T22:19:58.291Z,65.4
2022-11-15T22:21:42.094Z,65.5
2022-11-15T22:23:25.809Z,65.5
2022-11-15T22:25:09.456Z,65.5
2022-11-15T22:26:53.055Z,65.6
2022-11-15T22:28:36.754Z,65.6
2022-11-15T22:30:20.603Z,65.7
2022-11-15T22:32:04.229Z,65.7
2022-11-15T22:33:48.046Z,65.6
2022-11-15T22:35:31.718Z,65.3
2022-11-15T22:37:15.363Z,65.1
2022-11-15T22:38:59.131Z,65
2022-11-15T22:40:42.849Z,65
2022-11-15T22:42:26.493Z,64.8
2022-11-15T22:44:10.314Z,65.2
2022-11-15T22:45:54.059Z,65.3
2022-11-15T22:47:37.590Z,65.3
2022-11-15T22:49:21.347Z,65.3
2022-11-15T22:51:05.066Z,65.3
2022-11-15T22:52:48.596Z,65.4
2022-11-15T22:54:32.426Z,65.4
2022-11-15T22:56:16.063Z,65
2022-11-15T22:57:59.753Z,64.2
2022-11-15T22:59:43.587Z,64.1
2022-11-15T23:01:27.276Z,64.1
2022-11-15T23:03:10.857Z,64
2022-11-15T23:04:54.660Z,63.9
2022-11-15T23:06:38.219Z,64.2
2022-11-15T23:08:22.079Z,64.2
2022-11-15T23:10:05.784Z,64.2
2022-11-15T23:11:49.335Z,64.3
2022-11-15T23:13:33.204Z,64.7
2022-11-15T23:15:16.891Z,64.9
2022-11-15T23:17:00.575Z,64.8
2022-11-15T23:18:44.322Z,64.8